createdAt,value
2019-04-14T00:00:59.669Z,12.00
2019-04-14T00:03:11.467Z,11.63
2019-04-14T00:05:16.915Z,12.03
2019-04-14T00:07:21.503Z,12.53
2019-04-14T00:09:45.257Z,11.37
2019-04-14T00:11:50.379Z,12.10
2019-04-14T00:13:54.591Z,12.07
2019-04-14T00:15:58.965Z,12.07
2019-04-14T00:18:03.239Z,12.47
2019-04-14T00:20:07.422Z,12.37
2019-04-14T00:22:11.691Z,12.27
2019-04-14T00:24:16.247Z,12.00
2019-04-14T00:26:29.362Z,12.17
2019-04-14T00:28:33.596Z,12.87
2019-04-14T00:30:38.253Z,12.77
2019-04-14T00:32:52.987Z,12.53
2019-04-14T00:35:14.665Z,11.77
2019-04-14T00:37:33.659Z,12.63
2019-04-14T00:40:01.939Z,12.40
2019-04-14T00:42:37.365Z,12.10
2019-04-14T00:44:44.921Z,13.33
2019-04-14T00:46:56.068Z,13.00
2019-04-14T00:49:00.600Z,13.60
2019-04-14T00:51:04.907Z,13.30
2019-04-14T00:53:09.854Z,12.87
2019-04-14T00:55:13.962Z,12.60
2019-04-14T00:57:18.135Z,12.80
2019-04-14T00:59:22.236Z,13.03
2019-04-14T01:01:26.556Z,13.13
2019-04-14T01:03:30.957Z,12.70
2019-04-14T01:05:35.971Z,13.27
2019-04-14T01:07:41.319Z,13.37
2019-04-14T01:09:46.276Z,13.77
2019-04-14T01:11:51.007Z,12.77
2019-04-14T01:13:55.110Z,13.53
2019-04-14T01:16:07.045Z,13.13
2019-04-14T01:18:05.839Z,11.93
2019-04-14T01:20:10.106Z,14.30
2019-04-14T01:22:14.209Z,14.43
2019-04-14T01:24:18.553Z,14.50
2019-04-14T01:26:22.666Z,15.13
2019-04-14T01:28:26.705Z,14.20
2019-04-14T01:30:30.663Z,13.93
2019-04-14T01:32:35.107Z,12.77
2019-04-14T01:34:39.172Z,13.50
2019-04-14T01:36:43.407Z,14.13
2019-04-14T01:38:47.299Z,14.00
2019-04-14T01:40:51.199Z,14.00
2019-04-14T01:42:54.971Z,13.90
2019-04-14T01:44:59.247Z,15.00
2019-04-14T01:47:03.319Z,15.43
2019-04-14T01:49:07.320Z,15.10
2019-04-14T01:51:20.253Z,15.40
2019-04-14T01:53:42.215Z,14.70
2019-04-14T01:56:08.094Z,14.53
2019-04-14T01:58:25.061Z,15.63
2019-04-14T02:00:47.137Z,15.80
2019-04-14T02:02:51.027Z,15.83
2019-04-14T02:04:55.331Z,16.87
2019-04-14T02:06:59.536Z,16.77
2019-04-14T02:09:06.146Z,17.13
2019-04-14T02:11:11.513Z,17.77
2019-04-14T02:13:15.719Z,16.57
2019-04-14T02:15:20.106Z,17.90
2019-04-14T02:17:24.276Z,18.00
2019-04-14T02:19:28.546Z,17.37
2019-04-14T02:21:32.491Z,18.50
2019-04-14T02:23:36.696Z,17.07
2019-04-14T02:25:40.742Z,17.70
2019-04-14T02:27:45.101Z,17.53
2019-04-14T02:29:49.520Z,17.37
2019-04-14T02:32:40.938Z,17.07
2019-04-14T02:36:32.248Z,17.77
2019-04-14T02:38:40.934Z,17.63
2019-04-14T02:40:43.805Z,16.83
2019-04-14T02:44:55.323Z,18.33
2019-04-14T02:47:04.097Z,16.70
2019-04-14T02:49:18.698Z,16.73
2019-04-14T02:51:15.909Z,17.43
2019-04-14T02:53:20.903Z,18.30
2019-04-14T02:55:15.259Z,19.20
2019-04-14T02:57:37.778Z,17.10
2019-04-14T02:59:29.919Z,17.70
2019-04-14T03:01:46.597Z,17.60
2019-04-14T03:03:43.478Z,18.33
2019-04-14T03:05:53.290Z,18.20
2019-04-14T03:08:00.450Z,18.47
2019-04-14T03:09:58.615Z,19.63
2019-04-14T03:16:25.831Z,19.67
2019-04-14T03:18:38.145Z,18.53
2019-04-14T03:20:59.132Z,20.77
2019-04-14T03:23:12.121Z,19.13
2019-04-14T03:25:26.578Z,19.93
2019-04-14T03:27:48.183Z,19.27
2019-04-14T03:29:55.315Z,20.03
2019-04-14T03:32:11.122Z,19.07
2019-04-14T03:40:18.195Z,21.23
2019-04-14T03:42:31.686Z,19.00
2019-04-14T03:44:37.241Z,19.43
2019-04-14T03:46:39.708Z,18.23
2019-04-14T03:48:52.785Z,17.37
2019-04-14T03:51:10.661Z,16.50
2019-04-14T03:53:18.792Z,16.20
2019-04-14T03:55:05.917Z,16.60
2019-04-14T03:56:55.795Z,17.77
2019-04-14T03:58:59.852Z,17.33
2019-04-14T04:01:04.089Z,18.27
2019-04-14T04:03:08.481Z,18.97
2019-04-14T04:05:12.804Z,18.57
2019-04-14T04:07:17.081Z,18.63
2019-04-14T04:09:25.632Z,19.20
2019-04-14T04:11:30.104Z,18.33
2019-04-14T04:13:34.538Z,18.90
2019-04-14T04:15:38.938Z,18.67
2019-04-14T04:17:53.900Z,20.07
2019-04-14T04:20:02.672Z,19.93
2019-04-14T04:22:24.554Z,19.40
2019-04-14T04:24:39.114Z,19.63
2019-04-14T04:26:56.038Z,19.03
2019-04-14T04:29:20.104Z,19.43
2019-04-14T04:31:28.670Z,19.87
2019-04-14T04:33:45.783Z,20.07
2019-04-14T04:35:54.319Z,20.10
2019-04-14T04:38:15.951Z,19.73
2019-04-14T04:40:22.826Z,19.80
2019-04-14T04:42:26.759Z,18.87
2019-04-14T04:44:31.322Z,18.90
2019-04-14T04:46:35.183Z,18.97
2019-04-14T04:48:39.311Z,19.63
2019-04-14T04:50:43.239Z,20.33
2019-04-14T04:52:47.515Z,21.90
2019-04-14T04:54:51.675Z,21.27
2019-04-14T04:56:55.857Z,19.77
2019-04-14T04:58:59.734Z,19.93
2019-04-14T05:01:03.652Z,20.87
2019-04-14T05:03:07.917Z,21.13
2019-04-14T05:05:49.230Z,20.40
2019-04-14T05:07:53.325Z,20.77
2019-04-14T05:10:15.348Z,19.90
2019-04-14T05:12:39.095Z,18.87
2019-04-14T05:14:48.047Z,20.37
2019-04-14T05:16:52.845Z,20.07
2019-04-14T05:19:10.098Z,19.30
2019-04-14T05:21:02.373Z,19.70
2019-04-14T05:23:06.340Z,19.20
2019-04-14T05:25:10.550Z,23.00
2019-04-14T05:27:14.613Z,20.53
2019-04-14T05:29:18.999Z,20.37
2019-04-14T05:31:26.243Z,20.10
2019-04-14T05:33:29.340Z,20.73
2019-04-14T05:35:53.226Z,22.20
2019-04-14T05:37:57.374Z,21.07
2019-04-14T05:40:01.641Z,20.70
2019-04-14T05:42:12.597Z,31.23
2019-04-14T05:44:12.138Z,24.90
2019-04-14T05:46:16.410Z,21.13
2019-04-14T05:48:20.460Z,20.70
2019-04-14T05:50:24.923Z,21.23
2019-04-14T05:52:29.595Z,22.63
2019-04-14T05:54:33.959Z,21.37
2019-04-14T05:56:39.108Z,22.77
2019-04-14T05:58:44.618Z,22.27
2019-04-14T06:00:51.384Z,21.60
2019-04-14T06:02:55.182Z,23.03
2019-04-14T06:04:59.401Z,22.07
2019-04-14T06:07:03.219Z,20.23
2019-04-14T06:09:07.760Z,22.70
2019-04-14T06:11:11.690Z,23.03
2019-04-14T06:13:15.799Z,23.87
2019-04-14T06:15:19.685Z,19.47
2019-04-14T06:17:23.570Z,21.13
2019-04-14T06:19:36.678Z,20.77
2019-04-14T06:21:33.044Z,22.10
2019-04-14T06:23:36.846Z,22.00
2019-04-14T06:25:40.669Z,22.40
2019-04-14T06:27:44.487Z,21.67
2019-04-14T06:29:50.075Z,21.97
2019-04-14T06:32:04.157Z,22.53
2019-04-14T06:34:39.240Z,23.47
2019-04-14T06:37:04.943Z,22.10
2019-04-14T06:39:34.055Z,21.97
2019-04-14T06:41:37.891Z,22.67
2019-04-14T06:43:48.749Z,23.07
2019-04-14T06:45:47.379Z,22.03
2019-04-14T06:47:51.183Z,24.60
2019-04-14T06:49:54.989Z,24.00
2019-04-14T06:51:58.972Z,22.87
2019-04-14T06:54:02.903Z,22.47
2019-04-14T06:56:06.908Z,22.03
2019-04-14T06:58:10.759Z,24.30
2019-04-14T07:00:14.700Z,21.77
2019-04-14T07:02:18.657Z,23.03
2019-04-14T07:04:22.593Z,22.67
2019-04-14T07:06:26.563Z,22.23
2019-04-14T07:08:30.501Z,22.37
2019-04-14T07:10:34.279Z,23.70
2019-04-14T07:12:38.325Z,22.60
2019-04-14T07:14:42.225Z,22.47
2019-04-14T07:16:46.308Z,21.17
2019-04-14T07:18:50.173Z,21.27
2019-04-14T07:20:54.063Z,21.63
2019-04-14T07:22:57.939Z,20.60
2019-04-14T07:25:01.735Z,21.67
2019-04-14T07:27:05.814Z,20.43
2019-04-14T07:29:09.701Z,21.43
2019-04-14T07:31:30.000Z,21.43
2019-04-14T07:33:55.739Z,21.67
2019-04-14T07:36:21.624Z,20.40
2019-04-14T07:38:43.111Z,20.47
2019-04-14T07:41:06.115Z,19.30
2019-04-14T07:43:15.666Z,18.17
2019-04-14T07:45:23.915Z,17.03
2019-04-14T07:47:45.964Z,17.23
2019-04-14T07:49:58.754Z,16.73
2019-04-14T07:52:22.542Z,15.63
2019-04-14T07:54:32.290Z,16.43
2019-04-14T07:56:53.084Z,14.73
2019-04-14T07:59:05.997Z,16.30
2019-04-14T08:01:12.380Z,15.30
2019-04-14T08:03:32.882Z,15.83
2019-04-14T08:05:38.196Z,15.33
2019-04-14T08:07:42.639Z,13.87
2019-04-14T08:09:46.543Z,14.77
2019-04-14T08:11:50.579Z,15.93
2019-04-14T08:13:54.583Z,13.80
2019-04-14T08:15:58.432Z,14.30
2019-04-14T08:18:02.323Z,14.83
2019-04-14T08:20:27.548Z,13.67
2019-04-14T08:22:50.278Z,13.70
2019-04-14T08:24:54.132Z,13.70
2019-04-14T08:26:58.141Z,14.57
2019-04-14T08:29:02.079Z,13.90
2019-04-14T08:31:06.029Z,79.97
2019-04-14T08:33:09.999Z,14.90
2019-04-14T08:35:14.068Z,15.27
2019-04-14T08:37:17.952Z,14.00
2019-04-14T08:39:21.899Z,14.80
2019-04-14T08:41:27.793Z,14.03
2019-04-14T08:43:45.770Z,13.87
2019-04-14T08:45:54.331Z,13.57
2019-04-14T08:48:23.104Z,14.30
2019-04-14T08:50:39.893Z,13.27
2019-04-14T08:53:05.871Z,13.80
2019-04-14T08:55:47.540Z,14.10
2019-04-14T08:58:13.349Z,13.90
2019-04-14T09:00:31.363Z,12.80
2019-04-14T09:03:01.720Z,14.20
2019-04-14T09:05:15.450Z,14.00
2019-04-14T09:07:41.450Z,13.23
2019-04-14T09:09:49.338Z,13.50
2019-04-14T09:12:14.876Z,12.70
2019-04-14T09:14:10.851Z,13.27
2019-04-14T09:16:14.644Z,13.77
2019-04-14T09:18:18.497Z,13.53
2019-04-14T09:20:22.555Z,13.53
2019-04-14T09:22:26.427Z,14.40
2019-04-14T09:24:30.264Z,13.87
2019-04-14T09:26:34.132Z,14.00
2019-04-14T09:28:37.937Z,13.30
2019-04-14T09:30:41.835Z,13.33
2019-04-14T09:32:45.725Z,13.57
2019-04-14T09:34:49.657Z,29.77
2019-04-14T09:36:53.531Z,15.13
2019-04-14T09:38:57.409Z,13.53
2019-04-14T09:41:01.286Z,13.03
2019-04-14T09:43:05.654Z,12.87
2019-04-14T09:45:09.911Z,12.30
2019-04-14T09:47:14.004Z,12.23
2019-04-14T09:49:17.932Z,12.33
2019-04-14T09:51:21.908Z,12.20
2019-04-14T09:53:25.777Z,11.87
2019-04-14T09:55:29.745Z,12.33
2019-04-14T09:57:33.563Z,11.00
2019-04-14T09:59:37.580Z,11.37
2019-04-14T10:01:41.475Z,12.07
2019-04-14T10:03:45.373Z,11.63
2019-04-14T10:05:49.170Z,12.30
2019-04-14T10:07:53.131Z,11.20
2019-04-14T10:09:57.079Z,11.97
2019-04-14T10:12:01.087Z,11.37
2019-04-14T10:14:05.066Z,12.00
2019-04-14T10:16:08.952Z,12.20
2019-04-14T10:18:12.818Z,10.83
2019-04-14T10:20:16.647Z,12.13
2019-04-14T10:22:33.172Z,11.87
2019-04-14T10:24:26.239Z,12.30
2019-04-14T10:26:30.187Z,11.50
2019-04-14T10:28:34.115Z,12.20
2019-04-14T10:30:37.979Z,12.83
2019-04-14T10:32:41.857Z,12.93
2019-04-14T10:34:45.732Z,11.83
2019-04-14T10:36:49.692Z,12.33
2019-04-14T10:38:53.520Z,12.13
2019-04-14T10:40:57.447Z,12.70
2019-04-14T10:43:01.401Z,11.90
2019-04-14T10:45:05.764Z,12.10
2019-04-14T10:47:09.739Z,11.33
2019-04-14T10:49:13.764Z,11.93
2019-04-14T10:51:29.577Z,12.23
2019-04-14T10:53:23.483Z,12.33
2019-04-14T10:55:27.375Z,11.67
2019-04-14T10:57:31.195Z,12.53
2019-04-14T10:59:35.010Z,12.37
2019-04-14T11:01:39.000Z,11.70
2019-04-14T11:03:43.032Z,11.37
2019-04-14T11:06:01.492Z,11.77
2019-04-14T11:08:05.399Z,11.20
2019-04-14T11:10:10.171Z,11.20
2019-04-14T11:12:14.170Z,12.03
2019-04-14T11:14:18.155Z,13.43
2019-04-14T11:16:22.093Z,11.97
2019-04-14T11:18:26.020Z,12.50
2019-04-14T11:20:29.973Z,12.50
2019-04-14T11:22:33.917Z,11.87
2019-04-14T11:24:37.743Z,11.53
2019-04-14T11:26:41.635Z,11.87
2019-04-14T11:28:45.551Z,11.43
2019-04-14T11:30:50.298Z,11.43
2019-04-14T11:33:28.615Z,11.47
2019-04-14T11:35:57.591Z,11.40
2019-04-14T11:38:19.131Z,11.40
2019-04-14T11:40:26.119Z,11.50
2019-04-14T11:42:30.007Z,12.00
2019-04-14T11:44:33.852Z,12.10
2019-04-14T11:46:37.831Z,12.57
2019-04-14T11:48:41.843Z,12.07
2019-04-14T11:50:45.806Z,12.30
2019-04-14T11:52:49.603Z,12.17
2019-04-14T11:54:53.531Z,11.57
2019-04-14T11:56:57.439Z,12.47
2019-04-14T11:59:01.408Z,12.47
2019-04-14T12:01:23.210Z,12.03
2019-04-14T12:03:45.274Z,11.93
2019-04-14T12:06:05.124Z,12.13
2019-04-14T12:08:28.147Z,12.20
2019-04-14T12:10:32.165Z,12.90
2019-04-14T12:12:39.097Z,11.57
2019-04-14T12:14:43.035Z,11.60
2019-04-14T12:16:46.916Z,11.33
2019-04-14T12:18:50.975Z,12.20
2019-04-14T12:20:54.908Z,13.03
2019-04-14T12:22:58.859Z,11.67
2019-04-14T12:25:02.843Z,11.97
2019-04-14T12:27:06.865Z,11.87
2019-04-14T12:29:11.776Z,11.47
2019-04-14T12:31:17.327Z,11.70
2019-04-14T12:33:21.387Z,11.30
2019-04-14T12:35:25.280Z,11.83
2019-04-14T12:37:29.142Z,11.53
2019-04-14T12:39:33.048Z,11.70
2019-04-14T12:41:44.585Z,11.23
2019-04-14T12:43:58.339Z,12.07
2019-04-14T12:46:36.739Z,12.43
2019-04-14T12:49:00.039Z,11.60
2019-04-14T12:51:20.557Z,11.20
2019-04-14T12:53:24.587Z,11.50
2019-04-14T12:55:29.018Z,11.60
2019-04-14T12:57:35.591Z,11.63
2019-04-14T12:59:39.491Z,11.17
2019-04-14T13:01:50.673Z,12.07
2019-04-14T13:03:54.602Z,10.90
2019-04-14T13:05:58.532Z,11.07
2019-04-14T13:08:02.463Z,10.87
2019-04-14T13:10:07.075Z,11.80
2019-04-14T13:12:11.019Z,11.37
2019-04-14T13:14:14.907Z,11.33
2019-04-14T13:16:18.827Z,11.70
2019-04-14T13:18:22.731Z,11.40
2019-04-14T13:20:26.715Z,11.87
2019-04-14T13:22:34.239Z,11.77
2019-04-14T13:24:36.143Z,11.30
2019-04-14T13:26:40.055Z,11.47
2019-04-14T13:28:43.983Z,11.67
2019-04-14T13:30:50.025Z,11.70
2019-04-14T13:32:53.931Z,12.70
2019-04-14T13:34:57.799Z,11.63
2019-04-14T13:37:01.747Z,11.00
2019-04-14T13:39:07.200Z,11.60
2019-04-14T13:41:11.025Z,12.03
2019-04-14T13:43:14.955Z,11.20
2019-04-14T13:45:18.890Z,11.77
2019-04-14T13:47:22.766Z,11.60
2019-04-14T13:49:26.699Z,11.00
2019-04-14T13:51:30.570Z,10.60
2019-04-14T13:53:34.383Z,12.13
2019-04-14T13:55:38.209Z,19.50
2019-04-14T13:57:42.121Z,12.77
2019-04-14T13:59:46.107Z,11.93
2019-04-14T14:01:49.994Z,11.73
2019-04-14T14:03:53.943Z,11.27
2019-04-14T14:05:57.952Z,11.00
2019-04-14T14:08:01.780Z,11.67
2019-04-14T14:10:06.576Z,11.07
2019-04-14T14:12:29.471Z,10.70
2019-04-14T14:14:48.471Z,11.33
2019-04-14T14:17:04.325Z,10.80
2019-04-14T14:19:17.990Z,10.57
2019-04-14T14:21:50.297Z,10.90
2019-04-14T14:24:13.248Z,10.73
2019-04-14T14:26:17.945Z,11.03
2019-04-14T14:28:21.897Z,11.23
2019-04-14T14:30:25.713Z,10.17
2019-04-14T14:32:32.912Z,10.47
2019-04-14T14:34:36.791Z,9.53
2019-04-14T14:36:40.716Z,10.30
2019-04-14T14:38:44.628Z,10.07
2019-04-14T14:40:49.229Z,10.60
2019-04-14T14:42:53.505Z,10.23
2019-04-14T14:45:23.204Z,9.77
2019-04-14T14:47:29.067Z,9.10
2019-04-14T14:50:07.066Z,9.67
2019-04-14T14:52:13.007Z,9.30
2019-04-14T14:54:16.927Z,10.27
2019-04-14T14:56:20.736Z,9.83
2019-04-14T14:58:24.655Z,10.50
2019-04-14T15:00:33.634Z,10.20
2019-04-14T15:02:37.435Z,10.73
2019-04-14T15:04:41.292Z,10.30
2019-04-14T15:06:45.139Z,9.80
2019-04-14T15:08:49.036Z,10.27
2019-04-14T15:10:52.955Z,10.93
2019-04-14T15:12:56.899Z,12.40
2019-04-14T15:15:00.852Z,9.77
2019-04-14T15:17:04.950Z,11.07
2019-04-14T15:19:08.967Z,10.77
2019-04-14T15:21:12.959Z,10.57
2019-04-14T15:23:24.802Z,9.90
2019-04-14T15:25:22.463Z,11.57
2019-04-14T15:27:26.434Z,11.03
2019-04-14T15:29:30.231Z,10.67
2019-04-14T15:31:34.135Z,10.50
2019-04-14T15:33:38.042Z,10.50
2019-04-14T15:35:41.980Z,10.10
2019-04-14T15:37:45.891Z,9.97
2019-04-14T15:39:49.841Z,9.97
2019-04-14T15:41:53.735Z,10.03
2019-04-14T15:43:57.778Z,9.60
2019-04-14T15:46:01.679Z,10.23
2019-04-14T15:48:05.551Z,9.43
2019-04-14T15:50:09.924Z,10.47
2019-04-14T15:52:13.765Z,10.00
2019-04-14T15:54:17.709Z,10.47
2019-04-14T15:56:46.569Z,10.80
2019-04-14T15:59:02.411Z,10.03
2019-04-14T16:01:22.667Z,10.03
2019-04-14T16:03:57.956Z,9.50
2019-04-14T16:06:26.727Z,10.17
2019-04-14T16:08:35.077Z,9.27
2019-04-14T16:10:43.687Z,10.10
2019-04-14T16:13:06.577Z,9.30
2019-04-14T16:15:28.395Z,9.20
2019-04-14T16:17:50.192Z,9.90
2019-04-14T16:20:09.364Z,9.10
2019-04-14T16:22:13.166Z,9.83
2019-04-14T16:24:16.974Z,9.97
2019-04-14T16:26:43.468Z,8.93
2019-04-14T16:28:51.995Z,9.80
2019-04-14T16:31:18.462Z,9.53
2019-04-14T16:33:30.463Z,9.27
2019-04-14T16:35:34.356Z,9.30
2019-04-14T16:37:38.203Z,9.23
2019-04-14T16:39:42.205Z,9.23
2019-04-14T16:41:46.289Z,8.83
2019-04-14T16:43:50.462Z,9.33
2019-04-14T16:45:54.356Z,9.47
2019-04-14T16:47:58.407Z,9.33
2019-04-14T16:50:02.635Z,9.50
2019-04-14T16:52:29.686Z,8.63
2019-04-14T16:54:42.267Z,9.40
2019-04-14T16:57:10.123Z,9.60
2019-04-14T16:59:16.258Z,9.07
2019-04-14T17:01:25.035Z,8.87
2019-04-14T17:03:28.967Z,9.10
2019-04-14T17:05:33.190Z,8.67
2019-04-14T17:07:37.143Z,9.17
2019-04-14T17:09:41.158Z,10.10
2019-04-14T17:11:45.075Z,9.83
2019-04-14T17:14:05.232Z,9.93
2019-04-14T17:16:34.345Z,9.70
2019-04-14T17:18:45.820Z,9.40
2019-04-14T17:20:55.958Z,8.97
2019-04-14T17:23:17.631Z,9.80
2019-04-14T17:25:28.859Z,9.23
2019-04-14T17:27:38.479Z,10.20
2019-04-14T17:30:04.777Z,8.53
2019-04-14T17:32:26.658Z,9.47
2019-04-14T17:34:55.768Z,8.80
2019-04-14T17:37:15.880Z,8.73
2019-04-14T17:39:27.735Z,8.60
2019-04-14T17:41:53.574Z,8.97
2019-04-14T17:44:10.968Z,8.60
2019-04-14T17:46:38.763Z,8.50
2019-04-14T17:49:07.976Z,9.37
2019-04-14T17:51:25.856Z,12.33
2019-04-14T17:53:43.319Z,9.23
2019-04-14T17:55:59.178Z,9.17
2019-04-14T17:58:11.933Z,11.08
2019-04-14T18:00:23.786Z,8.50
2019-04-14T18:02:34.526Z,9.17
2019-04-14T18:04:56.282Z,9.27
2019-04-14T18:07:05.351Z,8.87
2019-04-14T18:09:33.180Z,9.60
2019-04-14T18:11:46.008Z,9.40
2019-04-14T18:14:07.311Z,9.50
2019-04-14T18:16:23.111Z,9.40
2019-04-14T18:18:46.438Z,9.60
2019-04-14T18:20:53.606Z,9.27
2019-04-14T18:22:57.494Z,10.60
2019-04-14T18:25:01.510Z,11.70
2019-04-14T18:27:05.374Z,10.03
2019-04-14T18:29:27.171Z,10.20
2019-04-14T18:31:42.915Z,9.50
2019-04-14T18:34:12.481Z,9.93
2019-04-14T18:36:41.334Z,10.70
2019-04-14T18:39:09.335Z,10.27
2019-04-14T18:41:25.861Z,9.60
2019-04-14T18:43:50.239Z,10.23
2019-04-14T18:46:19.068Z,10.33
2019-04-14T18:48:35.819Z,10.77
2019-04-14T18:50:58.071Z,11.27
2019-04-14T18:53:12.110Z,10.43
2019-04-14T18:55:36.905Z,10.30
2019-04-14T18:58:11.830Z,10.73
2019-04-14T19:00:32.220Z,10.57
2019-04-14T19:02:36.135Z,10.73
2019-04-14T19:04:40.219Z,10.60
2019-04-14T19:06:44.286Z,10.77
2019-04-14T19:08:49.158Z,11.13
2019-04-14T19:11:07.015Z,9.93
2019-04-14T19:13:26.884Z,9.97
2019-04-14T19:15:37.925Z,9.97
2019-04-14T19:18:06.983Z,13.13
2019-04-14T19:20:11.693Z,12.80
2019-04-14T19:22:15.563Z,10.37
2019-04-14T19:24:19.413Z,10.37
2019-04-14T19:26:23.375Z,9.63
2019-04-14T19:28:27.416Z,10.57
2019-04-14T19:30:31.370Z,10.53
2019-04-14T19:32:35.280Z,10.50
2019-04-14T19:34:39.171Z,10.13
2019-04-14T19:36:43.276Z,10.23
2019-04-14T19:38:47.158Z,10.10
2019-04-14T19:40:51.072Z,9.60
2019-04-14T19:42:55.000Z,10.40
2019-04-14T19:44:58.935Z,10.03
2019-04-14T19:47:02.872Z,10.37
2019-04-14T19:49:06.711Z,10.27
2019-04-14T19:51:10.647Z,10.70
2019-04-14T19:53:14.536Z,10.47
2019-04-14T19:55:20.629Z,10.87
2019-04-14T19:57:23.983Z,10.13
2019-04-14T19:59:27.845Z,10.07
2019-04-14T20:01:31.727Z,10.07
2019-04-14T20:03:35.505Z,9.57
2019-04-14T20:05:39.515Z,8.83
2019-04-14T20:07:43.349Z,10.00
2019-04-14T20:09:47.202Z,9.93
2019-04-14T20:11:51.157Z,9.27
2019-04-14T20:13:55.199Z,9.73
2019-04-14T20:16:19.140Z,9.30
2019-04-14T20:18:33.019Z,8.50
2019-04-14T20:20:45.852Z,9.07
2019-04-14T20:23:00.553Z,8.13
2019-04-14T20:25:14.447Z,8.67
2019-04-14T20:27:40.671Z,11.83
2019-04-14T20:29:48.257Z,9.40
2019-04-14T20:31:55.793Z,8.43
2019-04-14T20:33:59.590Z,8.57
2019-04-14T20:36:05.358Z,7.23
2019-04-14T20:38:09.196Z,8.27
2019-04-14T20:40:13.424Z,8.20
2019-04-14T20:42:17.595Z,7.27
2019-04-14T20:44:21.517Z,7.47
2019-04-14T20:46:25.403Z,7.77
2019-04-14T20:48:29.235Z,7.37
2019-04-14T20:50:33.088Z,6.90
2019-04-14T20:52:37.055Z,7.43
2019-04-14T20:54:40.807Z,7.43
2019-04-14T20:56:44.659Z,7.90
2019-04-14T20:58:48.588Z,7.37
2019-04-14T21:00:52.433Z,7.67
2019-04-14T21:03:30.935Z,7.63
2019-04-14T21:05:45.508Z,7.93
2019-04-14T21:08:17.499Z,7.00
2019-04-14T21:10:35.224Z,7.13
2019-04-14T21:12:49.174Z,7.37
2019-04-14T21:15:09.482Z,7.80
2019-04-14T21:17:27.353Z,8.00
2019-04-14T21:19:46.947Z,6.87
2019-04-14T21:21:59.722Z,7.27
2019-04-14T21:24:11.124Z,7.60
2019-04-14T21:26:51.509Z,8.00
2019-04-14T21:29:09.123Z,7.33
2019-04-14T21:31:16.247Z,7.50
2019-04-14T21:33:37.794Z,8.00
2019-04-14T21:36:03.853Z,6.93
2019-04-14T21:38:18.083Z,7.30
2019-04-14T21:40:39.655Z,7.40
2019-04-14T21:42:43.880Z,7.33
2019-04-14T21:44:47.833Z,7.27
2019-04-14T21:46:51.827Z,7.77
2019-04-14T21:48:55.738Z,7.03
2019-04-14T21:50:59.663Z,7.13
2019-04-14T21:53:03.508Z,7.53
2019-04-14T21:55:07.580Z,7.13
2019-04-14T21:57:29.760Z,7.23
2019-04-14T21:59:35.390Z,7.47
2019-04-14T22:01:57.403Z,8.43
2019-04-14T22:04:08.732Z,7.10
2019-04-14T22:06:18.991Z,7.40
2019-04-14T22:08:29.631Z,7.53
2019-04-14T22:10:43.007Z,8.03
2019-04-14T22:12:47.895Z,7.20
2019-04-14T22:14:51.791Z,7.67
2019-04-14T22:16:55.826Z,7.73
2019-04-14T22:18:59.783Z,8.40
2019-04-14T22:21:03.654Z,7.40
2019-04-14T22:23:10.808Z,8.10
2019-04-14T22:25:15.410Z,7.63
2019-04-14T22:27:19.387Z,7.47
2019-04-14T22:29:23.228Z,7.93
2019-04-14T22:31:27.194Z,8.00
2019-04-14T22:33:31.110Z,8.37
2019-04-14T22:35:35.039Z,7.83
2019-04-14T22:37:38.952Z,7.77
2019-04-14T22:39:42.788Z,7.30
2019-04-14T22:41:46.770Z,7.67
2019-04-14T22:43:50.612Z,7.43
2019-04-14T22:45:54.507Z,7.53
2019-04-14T22:47:58.490Z,7.67
2019-04-14T22:50:02.443Z,7.77
2019-04-14T22:52:06.519Z,7.77
2019-04-14T22:54:10.615Z,7.73
2019-04-14T22:56:14.495Z,7.57
2019-04-14T22:58:18.305Z,7.37
2019-04-14T23:00:50.508Z,7.00
2019-04-14T23:03:05.377Z,7.90
2019-04-14T23:05:24.537Z,7.67
2019-04-14T23:07:44.960Z,7.37
2019-04-14T23:10:07.860Z,7.53
2019-04-14T23:12:20.086Z,7.40
2019-04-14T23:14:52.510Z,7.70
2019-04-14T23:17:17.137Z,7.07
2019-04-14T23:19:27.854Z,7.50
2019-04-14T23:21:37.775Z,8.27
2019-04-14T23:24:05.611Z,6.97
2019-04-14T23:26:09.546Z,7.27
2019-04-14T23:28:13.445Z,7.50
2019-04-14T23:30:17.679Z,7.27
2019-04-14T23:32:21.595Z,7.70
2019-04-14T23:34:25.439Z,7.33
2019-04-14T23:36:29.391Z,7.53
2019-04-14T23:38:33.283Z,7.47
2019-04-14T23:40:37.155Z,7.20
2019-04-14T23:42:40.915Z,7.37
2019-04-14T23:44:44.809Z,8.10
2019-04-14T23:46:48.844Z,7.53
2019-04-14T23:48:52.654Z,7.63
2019-04-14T23:50:56.546Z,7.20
2019-04-14T23:53:00.363Z,7.60
2019-04-14T23:55:04.667Z,7.67
2019-04-14T23:57:08.697Z,7.67
2019-04-14T23:59:12.567Z,7.63
